createdAt,value
2024-05-09T00:00:46.190Z,9.67
2024-05-09T00:03:14.026Z,9.58
2024-05-09T00:05:42.427Z,9.52
2024-05-09T00:08:11.081Z,9.45
2024-05-09T00:10:40.225Z,9.41
2024-05-09T00:13:10.669Z,9.35
2024-05-09T00:15:39.196Z,9.28
2024-05-09T00:18:07.855Z,9.23
2024-05-09T00:20:39.624Z,9.19
2024-05-09T00:23:12.065Z,9.13
2024-05-09T00:25:43.068Z,9.07
2024-05-09T00:28:14.271Z,9.01
2024-05-09T00:30:41.826Z,8.98
2024-05-09T00:33:10.793Z,8.92
2024-05-09T00:35:39.443Z,8.87
2024-05-09T00:38:07.389Z,8.84
2024-05-09T00:40:40.265Z,8.83
2024-05-09T00:43:11.417Z,8.81
2024-05-09T00:45:39.554Z,8.80
2024-05-09T00:48:09.518Z,8.78
2024-05-09T00:50:41.105Z,8.74
2024-05-09T00:53:14.515Z,8.72
2024-05-09T00:55:42.886Z,8.69
2024-05-09T00:58:12.899Z,8.68
2024-05-09T01:00:41.640Z,8.66
2024-05-09T01:03:12.139Z,8.63
2024-05-09T01:05:42.425Z,8.60
2024-05-09T01:08:12.149Z,8.55
2024-05-09T01:10:43.765Z,8.48
2024-05-09T01:13:13.096Z,8.42
2024-05-09T01:15:40.709Z,8.40
2024-05-09T01:18:11.702Z,8.37
2024-05-09T01:20:43.320Z,8.34
2024-05-09T01:23:15.127Z,8.32
2024-05-09T01:25:46.192Z,8.31
2024-05-09T01:28:15.314Z,8.29
2024-05-09T01:30:42.989Z,8.25
2024-05-09T01:33:12.117Z,8.21
2024-05-09T01:35:42.202Z,8.18
2024-05-09T01:38:17.433Z,8.15
2024-05-09T01:40:46.154Z,8.14
2024-05-09T01:43:13.889Z,8.12
2024-05-09T01:45:41.812Z,8.08
2024-05-09T01:48:10.778Z,8.06
2024-05-09T01:50:42.004Z,8.04
2024-05-09T01:53:12.607Z,8.06
2024-05-09T01:55:40.908Z,8.06
2024-05-09T01:58:09.595Z,8.05
2024-05-09T02:00:41.352Z,8.04
2024-05-09T02:03:14.620Z,8.02
2024-05-09T02:05:46.896Z,7.99
2024-05-09T02:08:17.582Z,7.97
2024-05-09T02:10:47.159Z,7.94
2024-05-09T02:13:15.900Z,7.89
2024-05-09T02:15:43.832Z,7.86
2024-05-09T02:18:11.839Z,7.88
2024-05-09T02:20:41.340Z,7.84
2024-05-09T02:23:09.797Z,7.84
2024-05-09T02:25:37.616Z,7.85
2024-05-09T02:28:05.607Z,7.86
2024-05-09T02:30:39.458Z,7.86
2024-05-09T02:33:11.841Z,7.85
2024-05-09T02:35:41.653Z,7.82
2024-05-09T02:38:10.264Z,7.82
2024-05-09T02:40:39.590Z,7.82
2024-05-09T02:43:10.275Z,7.85
2024-05-09T02:45:40.232Z,7.88
2024-05-09T02:48:11.716Z,7.90
2024-05-09T02:50:44.539Z,7.90
2024-05-09T02:53:13.120Z,7.90
2024-05-09T02:55:41.906Z,7.86
2024-05-09T02:58:10.630Z,7.84
2024-05-09T03:00:41.618Z,7.78
2024-05-09T03:03:13.487Z,7.74
2024-05-09T03:05:44.259Z,7.71
2024-05-09T03:08:12.426Z,7.69
2024-05-09T03:10:40.407Z,7.69
2024-05-09T03:13:14.401Z,7.70
2024-05-09T03:15:43.932Z,7.70
2024-05-09T03:18:12.339Z,7.71
2024-05-09T03:20:40.572Z,7.67
2024-05-09T03:23:09.716Z,7.63
2024-05-09T03:25:39.023Z,7.57
2024-05-09T03:28:06.806Z,7.58
2024-05-09T03:30:40.803Z,7.58
2024-05-09T03:33:19.387Z,7.61
2024-05-09T03:35:49.272Z,7.62
2024-05-09T03:38:17.510Z,7.67
2024-05-09T03:40:46.801Z,7.82
2024-05-09T03:43:14.713Z,8.00
2024-05-09T03:45:43.277Z,8.13
2024-05-09T03:48:11.456Z,8.23
2024-05-09T03:50:39.665Z,8.40
2024-05-09T03:53:10.524Z,8.62
2024-05-09T03:55:38.302Z,9.12
2024-05-09T03:58:08.154Z,9.64
2024-05-09T04:00:39.305Z,9.97
2024-05-09T04:03:11.163Z,10.54
2024-05-09T04:05:42.487Z,11.23
2024-05-09T04:08:15.018Z,11.84
2024-05-09T04:10:42.970Z,12.36
2024-05-09T04:13:11.070Z,12.93
2024-05-09T04:15:39.393Z,13.50
2024-05-09T04:18:07.289Z,13.76
2024-05-09T04:20:39.121Z,14.21
2024-05-09T04:23:12.844Z,14.33
2024-05-09T04:25:44.355Z,14.62
2024-05-09T04:28:12.772Z,15.14
2024-05-09T04:30:41.648Z,15.49
2024-05-09T04:33:12.573Z,15.44
2024-05-09T04:35:43.284Z,15.71
2024-05-09T04:38:12.773Z,16.11
2024-05-09T04:40:40.811Z,16.41
2024-05-09T04:43:15.498Z,16.17
2024-05-09T04:45:43.725Z,16.11
2024-05-09T04:48:11.808Z,16.21
2024-05-09T04:50:40.030Z,16.51
2024-05-09T04:53:10.486Z,16.40
2024-05-09T04:55:39.951Z,16.84
2024-05-09T04:58:14.479Z,17.59
2024-05-09T05:00:43.508Z,18.15
2024-05-09T05:03:14.517Z,18.39
2024-05-09T05:05:45.339Z,18.48
2024-05-09T05:08:15.295Z,18.13
2024-05-09T05:10:43.890Z,17.49
2024-05-09T05:13:23.937Z,16.80
2024-05-09T05:15:56.752Z,17.16
2024-05-09T05:18:27.655Z,17.74
2024-05-09T05:20:56.434Z,18.20
2024-05-09T05:23:24.897Z,18.53
2024-05-09T05:25:55.182Z,19.26
2024-05-09T05:28:23.418Z,19.96
2024-05-09T05:30:51.130Z,20.16
2024-05-09T05:33:19.475Z,19.89
2024-05-09T05:35:47.670Z,20.01
2024-05-09T05:38:15.759Z,20.18
2024-05-09T05:40:43.387Z,19.69
2024-05-09T05:43:17.604Z,18.96
2024-05-09T05:45:45.734Z,19.09
2024-05-09T05:48:16.729Z,18.90
2024-05-09T05:50:45.498Z,18.65
2024-05-09T05:53:13.644Z,18.48
2024-05-09T05:55:41.913Z,18.22
2024-05-09T05:58:10.840Z,18.26
2024-05-09T06:00:40.522Z,18.62
2024-05-09T06:03:10.362Z,18.97
2024-05-09T06:05:44.303Z,19.49
2024-05-09T06:08:12.512Z,19.02
2024-05-09T06:10:41.485Z,18.61
2024-05-09T06:13:13.970Z,19.03
2024-05-09T06:15:42.557Z,19.48
2024-05-09T06:18:11.833Z,20.25
2024-05-09T06:20:43.220Z,20.53
2024-05-09T06:23:12.843Z,20.07
2024-05-09T06:25:40.842Z,20.20
2024-05-09T06:28:08.395Z,20.12
2024-05-09T06:30:42.342Z,20.43
2024-05-09T06:33:14.405Z,21.07
2024-05-09T06:35:44.843Z,21.05
2024-05-09T06:38:12.708Z,21.42
2024-05-09T06:40:42.926Z,21.69
2024-05-09T06:43:17.476Z,21.10
2024-05-09T06:45:48.430Z,21.72
2024-05-09T06:48:21.062Z,21.60
2024-05-09T06:50:49.880Z,20.75
2024-05-09T06:53:20.557Z,20.19
2024-05-09T06:55:48.325Z,20.25
2024-05-09T06:58:16.220Z,19.99
2024-05-09T07:00:43.963Z,19.82
2024-05-09T07:03:17.899Z,20.23
2024-05-09T07:05:48.316Z,20.60
2024-05-09T07:08:17.553Z,20.78
2024-05-09T07:10:45.265Z,21.29
2024-05-09T07:13:15.133Z,20.32
2024-05-09T07:15:43.498Z,19.67
2024-05-09T07:18:17.143Z,20.00
2024-05-09T07:20:47.292Z,20.52
2024-05-09T07:23:16.075Z,19.84
2024-05-09T07:25:43.869Z,20.42
2024-05-09T07:28:14.870Z,19.98
2024-05-09T07:30:43.081Z,19.40
2024-05-09T07:33:20.848Z,19.42
2024-05-09T07:35:50.084Z,19.25
2024-05-09T07:38:17.801Z,19.75
2024-05-09T07:40:45.621Z,19.25
2024-05-09T07:43:14.670Z,18.90
2024-05-09T07:45:51.411Z,18.53
2024-05-09T07:52:38.064Z,19.25
2024-05-09T07:53:49.572Z,18.93
2024-05-09T07:56:22.465Z,18.52
2024-05-09T07:58:54.111Z,18.20
2024-05-09T08:01:22.621Z,17.61
2024-05-09T08:03:50.771Z,17.97
2024-05-09T08:06:18.657Z,17.95
2024-05-09T08:08:49.806Z,17.98
2024-05-09T08:11:17.526Z,17.73
2024-05-09T08:13:45.073Z,17.91
2024-05-09T08:16:14.286Z,18.04
2024-05-09T08:18:42.488Z,17.83
2024-05-09T08:21:10.141Z,17.99
2024-05-09T08:23:37.907Z,18.34
2024-05-09T08:26:05.828Z,18.28
2024-05-09T08:28:33.367Z,18.19
2024-05-09T08:31:04.162Z,18.05
2024-05-09T08:33:33.884Z,17.41
2024-05-09T08:36:01.564Z,17.41
2024-05-09T08:38:29.163Z,18.32
2024-05-09T08:40:56.845Z,18.76
2024-05-09T08:43:26.870Z,18.98
2024-05-09T08:45:54.641Z,18.14
2024-05-09T08:48:24.384Z,17.88
2024-05-09T08:50:53.425Z,18.03
2024-05-09T08:53:21.535Z,17.94
2024-05-09T08:55:51.281Z,18.04
2024-05-09T08:58:21.942Z,18.24
2024-05-09T09:00:49.987Z,17.36
2024-05-09T09:03:19.794Z,18.71
2024-05-09T09:06:09.160Z,20.24
2024-05-09T09:08:39.275Z,21.21
2024-05-09T09:11:07.375Z,21.60
2024-05-09T09:13:34.895Z,21.45
2024-05-09T09:16:03.903Z,20.69
2024-05-09T09:18:33.211Z,19.30
2024-05-09T09:21:03.101Z,19.33
2024-05-09T09:23:31.051Z,20.24
2024-05-09T09:26:02.030Z,20.69
2024-05-09T09:28:30.207Z,21.23
2024-05-09T09:31:04.643Z,21.19
2024-05-09T09:34:19.137Z,20.09
2024-05-09T09:36:48.033Z,19.68
2024-05-09T09:39:18.659Z,18.74
2024-05-09T09:41:47.964Z,17.55
2024-05-09T09:44:17.252Z,17.08
2024-05-09T09:46:45.644Z,17.17
2024-05-09T09:49:13.687Z,17.41
2024-05-09T09:51:43.894Z,17.45
2024-05-09T09:54:13.282Z,17.93
2024-05-09T09:56:43.473Z,18.82
2024-05-09T09:59:14.218Z,19.54
2024-05-09T10:01:46.094Z,19.73
2024-05-09T10:04:19.297Z,20.36
2024-05-09T10:06:53.014Z,19.99
2024-05-09T10:09:21.949Z,19.27
2024-05-09T10:11:54.457Z,18.70
2024-05-09T10:14:25.742Z,18.34
2024-05-09T10:17:03.808Z,17.80
2024-05-09T10:19:31.540Z,18.46
2024-05-09T10:22:03.414Z,18.52
2024-05-09T10:24:50.905Z,17.90
2024-05-09T10:27:29.007Z,17.13
2024-05-09T10:30:09.095Z,17.66
2024-05-09T10:32:42.451Z,17.84
2024-05-09T10:35:13.265Z,18.74
2024-05-09T10:37:41.191Z,19.31
2024-05-09T10:40:14.256Z,18.90
2024-05-09T10:42:48.570Z,19.27
2024-05-09T10:45:16.904Z,19.86
2024-05-09T10:47:45.415Z,19.89
2024-05-09T10:50:22.219Z,19.99
2024-05-09T10:52:55.882Z,20.37
2024-05-09T10:55:23.572Z,21.04
2024-05-09T10:57:51.309Z,21.50
2024-05-09T11:00:27.471Z,22.41
2024-05-09T11:03:01.118Z,21.53
2024-05-09T11:05:29.621Z,21.53
2024-05-09T11:07:57.504Z,21.03
2024-05-09T11:10:33.375Z,19.84
2024-05-09T11:13:02.090Z,18.96
2024-05-09T11:15:42.195Z,18.47
2024-05-09T11:18:25.872Z,17.39
2024-05-09T11:20:56.446Z,16.88
2024-05-09T11:23:30.781Z,17.49
2024-05-09T11:25:59.161Z,18.69
2024-05-09T11:28:29.154Z,19.24
2024-05-09T11:31:08.043Z,20.05
2024-05-09T11:33:40.257Z,21.11
2024-05-09T11:36:08.967Z,21.19
2024-05-09T11:38:36.638Z,20.52
2024-05-09T11:41:05.272Z,20.16
2024-05-09T11:43:33.607Z,19.83
2024-05-09T11:46:03.658Z,19.47
2024-05-09T11:48:32.478Z,19.65
2024-05-09T11:51:00.423Z,19.99
2024-05-09T11:53:28.082Z,20.62
2024-05-09T11:55:55.746Z,21.02
2024-05-09T11:58:23.795Z,21.11
2024-05-09T12:00:51.767Z,20.26
2024-05-09T12:03:19.619Z,20.82
2024-05-09T12:05:47.496Z,21.56
2024-05-09T12:08:15.365Z,21.46
2024-05-09T12:10:43.232Z,21.38
2024-05-09T12:13:10.997Z,21.67
2024-05-09T12:15:39.262Z,21.77
2024-05-09T12:18:08.130Z,22.21
2024-05-09T12:20:39.112Z,22.87
2024-05-09T12:23:10.027Z,23.12
2024-05-09T12:25:39.972Z,23.56
2024-05-09T12:28:08.478Z,23.80
2024-05-09T12:30:40.158Z,23.04
2024-05-09T12:33:12.482Z,21.93
2024-05-09T12:35:43.223Z,20.76
2024-05-09T12:38:13.954Z,20.92
2024-05-09T12:40:42.738Z,21.61
2024-05-09T12:43:11.473Z,21.83
2024-05-09T12:45:40.388Z,21.61
2024-05-09T12:48:12.414Z,20.92
2024-05-09T12:50:41.533Z,21.47
2024-05-09T12:53:09.525Z,21.53
2024-05-09T12:55:44.932Z,21.16
2024-05-09T12:58:24.578Z,21.32
2024-05-09T13:00:52.899Z,21.44
2024-05-09T13:03:21.577Z,21.17
2024-05-09T13:05:50.649Z,21.46
2024-05-09T13:08:18.529Z,21.69
2024-05-09T13:10:46.708Z,21.90
2024-05-09T13:13:14.635Z,21.34
2024-05-09T13:15:42.748Z,20.09
2024-05-09T13:18:10.540Z,20.07
2024-05-09T13:20:38.263Z,19.78
2024-05-09T13:23:08.066Z,19.37
2024-05-09T13:25:37.825Z,19.41
2024-05-09T13:28:07.001Z,19.43
2024-05-09T13:30:39.954Z,20.17
2024-05-09T13:33:14.168Z,20.76
2024-05-09T13:35:47.256Z,20.94
2024-05-09T13:38:19.168Z,21.12
2024-05-09T13:40:47.782Z,21.26
2024-05-09T13:43:16.172Z,21.14
2024-05-09T13:45:44.181Z,21.05
2024-05-09T13:48:12.178Z,21.34
2024-05-09T13:50:40.257Z,20.59
2024-05-09T13:53:08.917Z,20.48
2024-05-09T13:55:40.572Z,20.36
2024-05-09T13:58:09.569Z,20.33
2024-05-09T14:00:46.370Z,20.61
2024-05-09T14:03:19.285Z,19.76
2024-05-09T14:05:50.199Z,19.82
2024-05-09T14:08:20.233Z,19.94
2024-05-09T14:10:49.391Z,20.39
2024-05-09T14:13:17.472Z,20.49
2024-05-09T14:15:46.427Z,19.97
2024-05-09T14:18:14.744Z,19.96
2024-05-09T14:20:43.355Z,20.30
2024-05-09T14:23:11.363Z,20.67
2024-05-09T14:25:42.490Z,20.79
2024-05-09T14:28:12.953Z,21.10
2024-05-09T14:30:42.219Z,20.73
2024-05-09T14:33:11.687Z,20.21
2024-05-09T14:35:39.607Z,20.28
2024-05-09T14:38:08.859Z,20.38
2024-05-09T14:40:42.263Z,20.41
2024-05-09T14:43:13.080Z,20.41
2024-05-09T14:45:41.848Z,20.00
2024-05-09T14:48:10.564Z,19.97
2024-05-09T14:50:40.194Z,20.31
2024-05-09T14:53:10.522Z,20.41
2024-05-09T14:55:40.920Z,20.32
2024-05-09T14:58:10.913Z,20.62
2024-05-09T15:00:46.801Z,21.00
2024-05-09T15:03:22.161Z,20.37
2024-05-09T15:05:51.207Z,20.56
2024-05-09T15:08:19.995Z,20.20
2024-05-09T15:10:50.289Z,20.06
2024-05-09T15:13:19.839Z,19.52
2024-05-09T15:15:47.791Z,19.38
2024-05-09T15:18:15.848Z,19.16
2024-05-09T15:20:45.084Z,19.20
2024-05-09T15:23:13.628Z,19.04
2024-05-09T15:25:41.388Z,19.25
2024-05-09T15:28:09.444Z,19.65
2024-05-09T15:30:37.768Z,19.87
2024-05-09T15:33:07.220Z,19.92
2024-05-09T15:35:36.143Z,19.64
2024-05-09T15:38:04.590Z,19.32
2024-05-09T15:40:39.102Z,18.90
2024-05-09T15:43:10.558Z,19.19
2024-05-09T15:45:41.030Z,19.13
2024-05-09T15:48:10.411Z,19.35
2024-05-09T15:50:41.400Z,19.64
2024-05-09T15:53:12.244Z,19.29
2024-05-09T15:55:42.263Z,19.58
2024-05-09T15:58:12.386Z,19.85
2024-05-09T16:00:43.463Z,19.95
2024-05-09T16:03:14.411Z,19.97
2024-05-09T16:05:45.541Z,19.56
2024-05-09T16:08:14.961Z,19.47
2024-05-09T16:10:46.009Z,19.49
2024-05-09T16:13:15.599Z,19.22
2024-05-09T16:15:44.360Z,18.56
2024-05-09T16:18:13.034Z,18.63
2024-05-09T16:20:42.519Z,18.57
2024-05-09T16:23:12.965Z,18.40
2024-05-09T16:25:46.387Z,18.50
2024-05-09T16:28:14.245Z,18.59
2024-05-09T16:30:42.070Z,18.02
2024-05-09T16:33:11.169Z,17.92
2024-05-09T16:35:39.607Z,17.88
2024-05-09T16:38:07.842Z,18.13
2024-05-09T16:40:39.896Z,18.32
2024-05-09T16:43:10.529Z,18.45
2024-05-09T16:45:40.648Z,18.49
2024-05-09T16:48:09.136Z,18.56
2024-05-09T16:50:37.593Z,18.57
2024-05-09T16:53:06.768Z,18.60
2024-05-09T16:55:35.853Z,18.58
2024-05-09T16:58:05.098Z,18.57
2024-05-09T17:00:40.378Z,18.53
2024-05-09T17:03:14.295Z,18.48
2024-05-09T17:05:44.081Z,18.40
2024-05-09T17:08:13.016Z,18.43
2024-05-09T17:10:40.926Z,18.30
2024-05-09T17:13:08.760Z,18.32
2024-05-09T17:15:37.709Z,18.33
2024-05-09T17:18:07.527Z,18.31
2024-05-09T17:20:37.477Z,18.29
2024-05-09T17:23:15.409Z,18.25
2024-05-09T17:25:43.531Z,18.06
2024-05-09T17:28:11.798Z,17.97
2024-05-09T17:30:42.151Z,17.94
2024-05-09T17:33:11.983Z,17.78
2024-05-09T17:35:40.910Z,17.71
2024-05-09T17:38:08.997Z,17.58
2024-05-09T17:40:38.378Z,17.49
2024-05-09T17:43:09.181Z,17.31
2024-05-09T17:45:40.513Z,17.25
2024-05-09T17:48:10.526Z,17.21
2024-05-09T17:50:39.574Z,17.14
2024-05-09T17:53:09.368Z,17.08
2024-05-09T17:55:37.418Z,16.99
2024-05-09T17:58:06.070Z,16.86
2024-05-09T18:00:39.195Z,16.71
2024-05-09T18:03:14.002Z,16.65
2024-05-09T18:05:43.700Z,16.56
2024-05-09T18:08:12.976Z,16.49
2024-05-09T18:10:41.631Z,16.44
2024-05-09T18:13:11.257Z,16.37
2024-05-09T18:15:39.977Z,16.25
2024-05-09T18:18:09.193Z,16.16
2024-05-09T18:20:42.997Z,16.10
2024-05-09T18:23:16.168Z,16.01
2024-05-09T18:25:45.932Z,15.95
2024-05-09T18:28:13.882Z,15.85
2024-05-09T18:30:41.856Z,15.78
2024-05-09T18:33:11.467Z,15.67
2024-05-09T18:35:42.746Z,15.57
2024-05-09T18:38:10.898Z,15.47
2024-05-09T18:40:40.149Z,15.35
2024-05-09T18:43:09.516Z,15.26
2024-05-09T18:45:38.584Z,15.20
2024-05-09T18:48:08.526Z,15.10
2024-05-09T18:50:39.566Z,15.05
2024-05-09T18:53:11.088Z,14.98
2024-05-09T18:55:39.702Z,14.89
2024-05-09T18:58:07.366Z,14.81
2024-05-09T19:00:38.472Z,14.76
2024-05-09T19:03:11.738Z,14.71
2024-05-09T19:05:43.701Z,14.65
2024-05-09T19:08:12.945Z,14.61
2024-05-09T19:10:41.550Z,14.58
2024-05-09T19:13:12.445Z,14.57
2024-05-09T19:15:42.895Z,14.54
2024-05-09T19:18:13.653Z,14.51
2024-05-09T19:20:42.274Z,14.47
2024-05-09T19:23:11.822Z,14.46
2024-05-09T19:25:40.031Z,14.45
2024-05-09T19:28:07.767Z,14.39
2024-05-09T19:30:40.278Z,14.36
2024-05-09T19:33:12.968Z,14.34
2024-05-09T19:35:42.361Z,14.31
2024-05-09T19:38:10.771Z,14.30
2024-05-09T19:40:38.548Z,14.28
2024-05-09T19:43:06.972Z,14.24
2024-05-09T19:45:35.783Z,14.23
2024-05-09T19:48:05.508Z,14.19
2024-05-09T19:50:41.317Z,14.17
2024-05-09T19:53:12.983Z,14.11
2024-05-09T19:55:41.617Z,14.05
2024-05-09T19:58:10.474Z,14.02
2024-05-09T20:00:41.408Z,13.98
2024-05-09T20:03:14.967Z,13.92
2024-05-09T20:05:47.069Z,13.85
2024-05-09T20:08:15.364Z,13.80
2024-05-09T20:10:43.209Z,13.79
2024-05-09T20:13:11.101Z,13.74
2024-05-09T20:15:40.192Z,13.69
2024-05-09T20:18:08.201Z,13.64
2024-05-09T20:20:40.064Z,13.60
2024-05-09T20:23:14.384Z,13.54
2024-05-09T20:25:42.895Z,13.50
2024-05-09T20:28:10.857Z,13.45
2024-05-09T20:30:39.072Z,13.42
2024-05-09T20:33:08.069Z,13.39
2024-05-09T20:35:37.031Z,13.38
2024-05-09T20:38:05.448Z,13.32
2024-05-09T20:40:37.154Z,13.29
2024-05-09T20:43:08.600Z,13.23
2024-05-09T20:45:36.638Z,13.22
2024-05-09T20:48:04.954Z,13.16
2024-05-09T20:50:38.586Z,13.09
2024-05-09T20:53:11.062Z,13.06
2024-05-09T20:55:39.897Z,13.04
2024-05-09T20:58:08.280Z,13.02
2024-05-09T21:00:40.362Z,13.01
2024-05-09T21:03:12.719Z,12.98
2024-05-09T21:05:41.245Z,12.94
2024-05-09T21:08:09.367Z,12.90
2024-05-09T21:10:37.651Z,12.88
2024-05-09T21:13:06.744Z,12.88
2024-05-09T21:15:35.836Z,12.82
2024-05-09T21:18:04.574Z,12.76
2024-05-09T21:20:34.997Z,12.72
2024-05-09T21:23:03.822Z,12.70
2024-05-09T21:25:32.133Z,12.67
2024-05-09T21:28:00.828Z,12.66
2024-05-09T21:30:38.427Z,12.65
2024-05-09T21:33:11.762Z,12.63
2024-05-09T21:35:41.672Z,12.56
2024-05-09T21:38:09.359Z,12.56
2024-05-09T21:40:38.204Z,12.51
2024-05-09T21:43:07.949Z,12.48
2024-05-09T21:45:36.605Z,12.46
2024-05-09T21:48:05.809Z,12.41
2024-05-09T21:50:40.032Z,12.38
2024-05-09T21:53:11.764Z,12.38
2024-05-09T21:55:39.901Z,12.34
2024-05-09T21:58:07.849Z,12.34
2024-05-09T22:00:39.319Z,12.34
2024-05-09T22:03:08.577Z,12.32
2024-05-09T22:05:37.820Z,12.30
2024-05-09T22:08:05.959Z,12.27
2024-05-09T22:10:35.937Z,12.26
2024-05-09T22:13:06.386Z,12.21
2024-05-09T22:15:39.884Z,12.19
2024-05-09T22:18:09.767Z,12.12
2024-05-09T22:20:45.122Z,12.12
2024-05-09T22:23:15.161Z,12.11
2024-05-09T22:25:42.741Z,12.08
2024-05-09T22:28:10.572Z,12.08
2024-05-09T22:30:39.961Z,12.06
2024-05-09T22:33:10.120Z,12.08
2024-05-09T22:35:40.734Z,12.08
2024-05-09T22:38:08.851Z,12.06
2024-05-09T22:40:46.377Z,12.03
2024-05-09T22:43:22.207Z,12.01
2024-05-09T22:45:52.295Z,12.00
2024-05-09T22:48:20.589Z,11.97
2024-05-09T22:50:48.749Z,11.89
2024-05-09T22:53:16.574Z,11.83
2024-05-09T22:55:44.282Z,11.83
2024-05-09T22:58:11.822Z,11.78
2024-05-09T23:00:39.617Z,11.76
2024-05-09T23:03:07.220Z,11.71
2024-05-09T23:05:34.929Z,11.69
2024-05-09T23:08:03.044Z,11.64
2024-05-09T23:10:36.131Z,11.61
2024-05-09T23:13:08.822Z,11.60
2024-05-09T23:15:40.448Z,11.63
2024-05-09T23:18:08.598Z,11.64
2024-05-09T23:20:39.135Z,11.61
2024-05-09T23:23:08.978Z,11.60
2024-05-09T23:25:37.755Z,11.54
2024-05-09T23:28:06.247Z,11.51
2024-05-09T23:30:38.511Z,11.42
2024-05-09T23:33:12.404Z,11.38
2024-05-09T23:35:44.494Z,11.35
2024-05-09T23:38:13.004Z,11.33
2024-05-09T23:40:42.322Z,11.31
2024-05-09T23:43:12.474Z,11.27
2024-05-09T23:45:41.447Z,11.26
2024-05-09T23:48:10.150Z,11.25
2024-05-09T23:50:39.585Z,11.23
2024-05-09T23:53:09.524Z,11.20
2024-05-09T23:55:38.458Z,11.19
2024-05-09T23:58:09.447Z,11.13
